Time;durP1;ratioP1;P1;durP2;ratioP2;P2;SDS_P1;SDS_P2;PMS_P1;PMS_P2;Temp;Humidity;BMP_temperature;BMP_pressure;BME280_temperature;BME280_humidity;BME280_pressure;Samples;Min_cycle;Max_cycle;Signal;HPM_P1;HPM_P2
2022/01/27 00:02:13;;;;;;;5.97;5.38;;;;;;;;;;5074800;28;20200;-81
2022/01/27 00:04:51;;;;;;;5.97;4.82;;;;;;;;;;5075505;28;20262;-80
2022/01/27 00:07:18;;;;;;;6.07;4.00;;;;;;;;;;5075156;28;20262;-80
2022/01/27 00:10:01;;;;;;;3.85;3.45;;;;;;;;;;5075409;28;20930;-80
2022/01/27 00:12:28;;;;;;;5.95;4.15;;;;;;;;;;5075122;28;20200;-80
2022/01/27 00:15:09;;;;;;;4.00;3.58;;;;;;;;;;5075121;28;20209;-80
2022/01/27 00:17:40;;;;;;;5.93;4.68;;;;;;;;;;5074674;28;20200;-80
2022/01/27 00:20:09;;;;;;;6.43;5.22;;;;;;;;;;5075193;28;20309;-80
2022/01/27 00:22:36;;;;;;;7.80;5.50;;;;;;;;;;5074650;28;20201;-80
2022/01/27 00:25:05;;;;;;;6.57;4.97;;;;;;;;;;5074850;28;20197;-80
2022/01/27 00:27:33;;;;;;;5.28;4.13;;;;;;;;;;5074971;28;20635;-80
2022/01/27 00:30:05;;;;;;;4.47;3.95;;;;;;;;;;5074935;28;20232;-80
2022/01/27 00:32:32;;;;;;;6.38;4.90;;;;;;;;;;5074778;28;20576;-80
2022/01/27 00:34:59;;;;;;;6.15;5.50;;;;;;;;;;5074404;28;20722;-80
2022/01/27 00:37:27;;;;;;;4.95;4.10;;;;;;;;;;5074451;28;20661;-80
2022/01/27 00:39:55;;;;;;;5.07;4.53;;;;;;;;;;5074090;28;20225;-80
2022/01/27 00:42:23;;;;;;;5.82;4.88;;;;;;;;;;5074328;28;20243;-80
2022/01/27 00:44:50;;;;;;;4.40;3.75;;;;;;;;;;5074207;28;20233;-80
2022/01/27 00:47:19;;;;;;;3.95;3.33;;;;;;;;;;5074385;28;20212;-80
2022/01/27 00:49:46;;;;;;;3.95;3.63;;;;;;;;;;5075044;28;20224;-80
2022/01/27 00:52:20;;;;;;;4.55;4.10;;;;;;;;;;5073689;28;20209;-81
2022/01/27 00:54:49;;;;;;;5.00;4.50;;;;;;;;;;5074845;28;20695;-80
2022/01/27 00:57:30;;;;;;;4.68;3.55;;;;;;;;;;5074939;28;20201;-80
2022/01/27 01:00:00;;;;;;;4.45;3.45;;;;;;;;;;5074759;28;20596;-80
2022/01/27 01:02:38;;;;;;;3.83;3.53;;;;;;;;;;5074786;28;20205;-80
2022/01/27 01:05:21;;;;;;;3.42;2.65;;;;;;;;;;5053947;28;20231;-80
2022/01/27 01:07:52;;;;;;;4.90;3.72;;;;;;;;;;5054303;28;20669;-80
2022/01/27 01:16:00;;;;;;;3.67;3.20;;;;;;;;;;5053383;28;20204;-80
2022/01/27 01:18:41;;;;;;;5.65;4.22;;;;;;;;;;5053805;28;20598;-80
2022/01/27 01:29:55;;;;;;;3.15;2.85;;;;;;;;;;4991797;28;20321;-80
2022/01/27 01:32:38;;;;;;;3.95;2.67;;;;;;;;;;4991560;28;20196;-80
2022/01/27 01:35:09;;;;;;;3.10;2.90;;;;;;;;;;5028181;28;20293;-80
2022/01/27 01:37:40;;;;;;;2.28;2.03;;;;;;;;;;5053604;28;20269;-80
2022/01/27 01:40:09;;;;;;;3.20;2.90;;;;;;;;;;5053378;28;20218;-80
2022/01/27 01:42:36;;;;;;;3.88;3.47;;;;;;;;;;5053146;28;20669;-80
2022/01/27 01:45:07;;;;;;;3.80;3.40;;;;;;;;;;5054010;28;20212;-80
2022/01/27 01:47:35;;;;;;;4.93;3.78;;;;;;;;;;5053365;28;20206;-81
2022/01/27 01:50:02;;;;;;;3.45;2.80;;;;;;;;;;5053881;28;20225;-80
2022/01/27 01:52:31;;;;;;;3.28;2.90;;;;;;;;;;5052980;28;20210;-80
2022/01/27 01:54:58;;;;;;;3.42;3.05;;;;;;;;;;5052515;28;20255;-80
2022/01/27 01:57:25;;;;;;;4.35;3.10;;;;;;;;;;5053066;28;20217;-80
2022/01/27 01:59:53;;;;;;;3.35;2.88;;;;;;;;;;5052400;28;20303;-80
2022/01/27 02:02:20;;;;;;;4.63;4.13;;;;;;;;;;5052670;28;20205;-80
2022/01/27 02:04:48;;;;;;;3.83;3.53;;;;;;;;;;5070463;28;20212;-80
2022/01/27 02:07:33;;;;;;;3.88;3.58;;;;;;;;;;5072578;28;20201;-81
2022/01/27 02:10:11;;;;;;;2.83;2.50;;;;;;;;;;5072985;28;20233;-80
2022/01/27 02:18:23;;;;;;;3.90;3.35;;;;;;;;;;5072500;28;20692;-80
2022/01/27 02:20:51;;;;;;;3.50;2.67;;;;;;;;;;5072957;28;20250;-80
2022/01/27 02:23:19;;;;;;;3.92;3.53;;;;;;;;;;5072411;28;20250;-80
2022/01/27 02:25:46;;;;;;;5.03;3.33;;;;;;;;;;5073105;28;20731;-80
2022/01/27 02:28:14;;;;;;;4.90;3.92;;;;;;;;;;5077061;28;20197;-80
2022/01/27 02:30:41;;;;;;;4.80;3.90;;;;;;;;;;5077059;28;20217;-80
2022/01/27 02:33:08;;;;;;;5.18;4.50;;;;;;;;;;5075294;28;20213;-80
2022/01/27 02:35:36;;;;;;;5.18;4.25;;;;;;;;;;5076869;28;20205;-80
2022/01/27 02:38:06;;;;;;;5.63;4.68;;;;;;;;;;5076643;28;20209;-80
2022/01/27 02:40:39;;;;;;;5.65;4.47;;;;;;;;;;5076269;28;20755;-80
2022/01/27 02:43:07;;;;;;;6.60;4.32;;;;;;;;;;5076492;28;20201;-81
2022/01/27 02:45:41;;;;;;;5.47;4.57;;;;;;;;;;5076305;28;20569;-80
2022/01/27 02:48:08;;;;;;;4.28;3.53;;;;;;;;;;5076665;28;20240;-80
2022/01/27 02:50:35;;;;;;;3.92;3.40;;;;;;;;;;5076244;28;20228;-81
2022/01/27 02:53:04;;;;;;;4.63;4.20;;;;;;;;;;5075876;28;20200;-79
2022/01/27 02:55:31;;;;;;;5.95;4.78;;;;;;;;;;5076055;28;20624;-80
2022/01/27 02:57:59;;;;;;;4.45;4.05;;;;;;;;;;5076588;28;20258;-80
2022/01/27 03:00:27;;;;;;;4.03;3.58;;;;;;;;;;5076394;28;20235;-80
2022/01/27 03:02:54;;;;;;;4.70;3.35;;;;;;;;;;5077299;28;20200;-80
2022/01/27 03:05:21;;;;;;;10.27;4.45;;;;;;;;;;5076751;28;20208;-80
2022/01/27 03:07:49;;;;;;;3.30;3.00;;;;;;;;;;5075958;28;20223;-80
2022/01/27 03:10:18;;;;;;;3.75;3.33;;;;;;;;;;5076695;28;20713;-81
2022/01/27 03:12:46;;;;;;;3.35;3.05;;;;;;;;;;5075721;28;20201;-80
2022/01/27 03:15:13;;;;;;;5.97;3.60;;;;;;;;;;5142240;22;20223;-80
2022/01/27 03:17:41;;;;;;;5.32;4.70;;;;;;;;;;5138153;27;20593;-79
2022/01/27 03:20:10;;;;;;;3.10;2.80;;;;;;;;;;5138692;27;20602;-78
2022/01/27 03:22:37;;;;;;;4.32;3.92;;;;;;;;;;5138679;27;20191;-80
2022/01/27 03:25:06;;;;;;;3.95;3.53;;;;;;;;;;5138630;27;20219;-80
2022/01/27 03:27:35;;;;;;;4.38;3.15;;;;;;;;;;5138368;27;20203;-80
2022/01/27 03:30:02;;;;;;;4.07;3.67;;;;;;;;;;5138627;27;20199;-80
2022/01/27 03:32:29;;;;;;;3.15;2.85;;;;;;;;;;5138617;27;20203;-79
2022/01/27 03:34:57;;;;;;;3.42;2.97;;;;;;;;;;5138166;27;20222;-80
2022/01/27 03:37:24;;;;;;;4.50;4.03;;;;;;;;;;5137097;27;20198;-80
2022/01/27 03:39:51;;;;;;;5.20;3.72;;;;;;;;;;5137547;27;20227;-80
2022/01/27 03:42:19;;;;;;;4.38;3.75;;;;;;;;;;5137960;27;20199;-78
2022/01/27 03:44:47;;;;;;;6.75;4.95;;;;;;;;;;5137856;27;20219;-78
2022/01/27 03:47:15;;;;;;;5.00;4.38;;;;;;;;;;5138763;27;20202;-80
2022/01/27 03:49:42;;;;;;;6.82;5.90;;;;;;;;;;5138560;27;20683;-81
2022/01/27 03:52:10;;;;;;;9.27;6.30;;;;;;;;;;5137838;27;20195;-79
2022/01/27 03:54:37;;;;;;;7.40;6.20;;;;;;;;;;5137744;27;20223;-79
2022/01/27 03:57:05;;;;;;;9.10;7.15;;;;;;;;;;5137818;27;20203;-79
2022/01/27 03:59:32;;;;;;;6.88;5.53;;;;;;;;;;5138119;27;20248;-79
2022/01/27 04:02:04;;;;;;;6.65;5.50;;;;;;;;;;5138212;27;20215;-80
2022/01/27 04:04:31;;;;;;;10.40;7.60;;;;;;;;;;5137674;27;20234;-78
2022/01/27 04:06:59;;;;;;;9.75;8.70;;;;;;;;;;5137148;27;20213;-79
2022/01/27 04:09:28;;;;;;;11.65;7.90;;;;;;;;;;5138230;27;20294;-80
2022/01/27 04:11:56;;;;;;;6.20;5.55;;;;;;;;;;5137512;27;20600;-78
2022/01/27 04:14:23;;;;;;;7.05;6.13;;;;;;;;;;5137614;27;20230;-80
2022/01/27 04:16:50;;;;;;;11.32;8.27;;;;;;;;;;5137803;27;20208;-79
2022/01/27 04:19:19;;;;;;;13.18;8.77;;;;;;;;;;5138012;27;20199;-78
2022/01/27 04:21:46;;;;;;;9.00;6.55;;;;;;;;;;5137693;27;20219;-79
2022/01/27 04:24:16;;;;;;;12.35;8.32;;;;;;;;;;5137216;27;20278;-81
2022/01/27 04:26:47;;;;;;;9.80;7.38;;;;;;;;;;5137929;27;20195;-80
2022/01/27 04:29:16;;;;;;;9.15;7.28;;;;;;;;;;5137758;27;20202;-79
2022/01/27 04:31:45;;;;;;;10.27;8.13;;;;;;;;;;5137860;27;20678;-78
2022/01/27 04:34:13;;;;;;;12.75;8.52;;;;;;;;;;5140891;27;20207;-80
2022/01/27 04:36:43;;;;;;;9.45;6.45;;;;;;;;;;5140750;27;20749;-80
2022/01/27 04:39:17;;;;;;;8.85;7.32;;;;;;;;;;5139724;27;20598;-81
2022/01/27 04:41:50;;;;;;;11.70;8.18;;;;;;;;;;5138272;27;20299;-79
2022/01/27 04:44:24;;;;;;;10.68;8.30;;;;;;;;;;5138131;27;20254;-80
2022/01/27 04:46:57;;;;;;;8.80;7.90;;;;;;;;;;5137741;27;20198;-80
2022/01/27 04:49:24;;;;;;;12.35;8.60;;;;;;;;;;5137866;27;20199;-80
2022/01/27 04:51:53;;;;;;;8.15;6.88;;;;;;;;;;5137541;27;20201;-80
2022/01/27 04:54:25;;;;;;;14.63;10.02;;;;;;;;;;5138200;27;20225;-81
2022/01/27 04:56:57;;;;;;;16.83;10.95;;;;;;;;;;5139809;27;20224;-80
2022/01/27 04:59:28;;;;;;;15.35;10.20;;;;;;;;;;5139378;27;20199;-81
2022/01/27 05:02:00;;;;;;;12.05;9.95;;;;;;;;;;5138653;27;20693;-81
2022/01/27 05:04:32;;;;;;;14.18;9.90;;;;;;;;;;5138407;27;20275;-81
2022/01/27 05:07:00;;;;;;;13.10;9.75;;;;;;;;;;5138150;27;20576;-79
2022/01/27 05:09:28;;;;;;;13.10;9.38;;;;;;;;;;5138083;27;20202;-79
2022/01/27 05:11:59;;;;;;;10.40;8.40;;;;;;;;;;5137614;27;20202;-79
2022/01/27 05:14:26;;;;;;;13.05;10.18;;;;;;;;;;5138293;27;20836;-80
2022/01/27 05:16:55;;;;;;;12.85;10.50;;;;;;;;;;5138518;27;20203;-80
2022/01/27 05:19:22;;;;;;;15.45;10.25;;;;;;;;;;5137973;27;20198;-79
2022/01/27 05:21:49;;;;;;;10.13;8.10;;;;;;;;;;5137790;27;20222;-80
2022/01/27 05:24:19;;;;;;;10.88;8.15;;;;;;;;;;5138342;27;20223;-79
2022/01/27 05:26:47;;;;;;;11.55;8.70;;;;;;;;;;5139608;27;20476;-80
2022/01/27 05:29:14;;;;;;;12.07;8.95;;;;;;;;;;5138712;27;20207;-80
2022/01/27 05:31:43;;;;;;;17.33;11.10;;;;;;;;;;5138259;27;20191;-80
2022/01/27 05:34:10;;;;;;;16.55;11.68;;;;;;;;;;5138000;27;20750;-80
2022/01/27 05:36:38;;;;;;;15.43;9.77;;;;;;;;;;5138234;27;20279;-80
2022/01/27 05:39:05;;;;;;;12.82;8.98;;;;;;;;;;5136233;27;20259;-79
2022/01/27 05:41:34;;;;;;;15.43;10.65;;;;;;;;;;5136493;27;20234;-80
2022/01/27 05:44:01;;;;;;;15.82;12.43;;;;;;;;;;5136076;27;20207;-77
2022/01/27 05:46:29;;;;;;;16.58;11.77;;;;;;;;;;5136804;27;20202;-80
2022/01/27 05:48:56;;;;;;;13.73;10.48;;;;;;;;;;5146186;27;20562;-83
2022/01/27 05:51:23;;;;;;;13.38;10.63;;;;;;;;;;5148253;27;20210;-83
2022/01/27 05:53:51;;;;;;;12.63;10.23;;;;;;;;;;5148453;27;20187;-83
2022/01/27 05:56:18;;;;;;;11.25;9.07;;;;;;;;;;5148011;27;20560;-83
2022/01/27 05:58:47;;;;;;;13.23;9.63;;;;;;;;;;5150319;27;20203;-83
2022/01/27 06:01:14;;;;;;;13.35;10.15;;;;;;;;;;5150053;27;20225;-83
2022/01/27 06:03:42;;;;;;;15.25;10.38;;;;;;;;;;5149641;27;20439;-83
2022/01/27 06:06:10;;;;;;;11.50;8.45;;;;;;;;;;5149903;27;20248;-83
2022/01/27 06:08:37;;;;;;;10.25;8.90;;;;;;;;;;5150060;28;20246;-83
2022/01/27 06:11:04;;;;;;;12.40;8.68;;;;;;;;;;5150773;28;20633;-83
2022/01/27 06:13:32;;;;;;;14.20;9.93;;;;;;;;;;5150034;28;20199;-84
2022/01/27 06:16:02;;;;;;;13.52;9.10;;;;;;;;;;5150412;28;20226;-83
2022/01/27 06:18:29;;;;;;;13.75;9.38;;;;;;;;;;5152554;28;20206;-82
2022/01/27 06:21:00;;;;;;;16.55;12.27;;;;;;;;;;5151567;28;20206;-82
2022/01/27 06:23:27;;;;;;;17.70;12.60;;;;;;;;;;5151014;28;20246;-82
2022/01/27 06:25:55;;;;;;;19.27;13.10;;;;;;;;;;5155795;28;20211;-83
2022/01/27 06:28:22;;;;;;;14.25;10.88;;;;;;;;;;5155981;28;20190;-85
2022/01/27 06:30:49;;;;;;;17.20;11.20;;;;;;;;;;5155746;28;20205;-82
2022/01/27 06:33:18;;;;;;;12.02;8.40;;;;;;;;;;5155779;28;20187;-83
2022/01/27 06:35:45;;;;;;;11.68;9.05;;;;;;;;;;5154077;28;20225;-80
2022/01/27 06:38:13;;;;;;;12.45;8.73;;;;;;;;;;5154738;28;20203;-79
2022/01/27 06:40:40;;;;;;;16.13;12.23;;;;;;;;;;5151456;28;20203;-82
2022/01/27 06:43:09;;;;;;;16.75;11.43;;;;;;;;;;5150099;28;20222;-82
2022/01/27 06:45:37;;;;;;;17.70;11.50;;;;;;;;;;5149739;28;20225;-82
2022/01/27 06:48:05;;;;;;;18.25;10.02;;;;;;;;;;5150600;28;20213;-83
2022/01/27 06:50:36;;;;;;;15.98;10.95;;;;;;;;;;5150724;28;20408;-82
2022/01/27 06:53:04;;;;;;;13.50;10.25;;;;;;;;;;5146483;28;20208;-83
2022/01/27 06:55:33;;;;;;;17.55;10.68;;;;;;;;;;5148424;28;20226;-85
2022/01/27 06:58:00;;;;;;;14.95;10.88;;;;;;;;;;5134130;28;20252;-84
2022/01/27 07:00:27;;;;;;;17.25;11.50;;;;;;;;;;5131395;28;20202;-83
2022/01/27 07:02:55;;;;;;;16.25;10.10;;;;;;;;;;5133075;28;20229;-81
2022/01/27 07:05:22;;;;;;;13.85;10.30;;;;;;;;;;5133302;28;20207;-83
2022/01/27 07:07:51;;;;;;;12.88;10.20;;;;;;;;;;5135798;28;20203;-82
2022/01/27 07:10:18;;;;;;;12.55;8.88;;;;;;;;;;5129822;28;20203;-84
2022/01/27 07:12:46;;;;;;;13.15;9.70;;;;;;;;;;5124462;28;20199;-83
2022/01/27 07:15:13;;;;;;;11.52;8.85;;;;;;;;;;5125539;28;20224;-83
2022/01/27 07:17:41;;;;;;;12.48;9.45;;;;;;;;;;5125464;28;20643;-83
2022/01/27 07:20:09;;;;;;;13.77;8.77;;;;;;;;;;5125803;28;20203;-84
2022/01/27 07:22:38;;;;;;;13.38;10.10;;;;;;;;;;5128318;28;20691;-84
2022/01/27 07:25:08;;;;;;;10.48;8.75;;;;;;;;;;5147793;27;20709;-84
2022/01/27 07:27:36;;;;;;;10.25;8.20;;;;;;;;;;5146121;27;20205;-84
2022/01/27 07:30:05;;;;;;;9.73;7.32;;;;;;;;;;5145925;27;20203;-84
2022/01/27 07:32:32;;;;;;;9.60;7.70;;;;;;;;;;5144477;27;20252;-84
2022/01/27 07:35:01;;;;;;;10.90;7.50;;;;;;;;;;5145952;27;20250;-84
2022/01/27 07:37:28;;;;;;;10.40;7.38;;;;;;;;;;5144090;27;20203;-84
2022/01/27 07:39:55;;;;;;;12.30;7.82;;;;;;;;;;5147150;27;20210;-85
2022/01/27 07:42:24;;;;;;;12.52;10.18;;;;;;;;;;5148153;27;20218;-85
2022/01/27 07:44:51;;;;;;;15.07;10.93;;;;;;;;;;5146468;27;20221;-84
2022/01/27 07:47:19;;;;;;;17.42;11.77;;;;;;;;;;5147385;27;20195;-84
2022/01/27 07:49:46;;;;;;;15.95;12.15;;;;;;;;;;5148112;27;20276;-85
2022/01/27 07:52:14;;;;;;;14.57;9.88;;;;;;;;;;5149948;27;20233;-84
2022/01/27 07:54:41;;;;;;;13.80;9.02;;;;;;;;;;5151005;27;20222;-85
2022/01/27 07:57:08;;;;;;;17.67;12.48;;;;;;;;;;5148937;27;20203;-85
2022/01/27 07:59:37;;;;;;;15.52;10.80;;;;;;;;;;5146915;27;20191;-85
2022/01/27 08:02:05;;;;;;;18.55;11.05;;;;;;;;;;5147976;27;20187;-85
2022/01/27 08:04:32;;;;;;;14.18;10.40;;;;;;;;;;5146711;27;20225;-84
2022/01/27 08:07:02;;;;;;;14.18;9.27;;;;;;;;;;5146828;27;20286;-86
2022/01/27 08:09:29;;;;;;;10.68;8.68;;;;;;;;;;5148506;27;20187;-84
2022/01/27 08:11:57;;;;;;;10.05;7.70;;;;;;;;;;5146942;27;20198;-85
2022/01/27 08:14:24;;;;;;;10.65;7.32;;;;;;;;;;5147474;27;20233;-86
2022/01/27 08:16:53;;;;;;;10.93;7.68;;;;;;;;;;5149030;27;20579;-84
2022/01/27 08:19:21;;;;;;;11.35;8.23;;;;;;;;;;5147355;27;20191;-85
2022/01/27 08:21:48;;;;;;;13.80;8.73;;;;;;;;;;5147890;27;20210;-85
2022/01/27 08:24:17;;;;;;;11.63;8.88;;;;;;;;;;5147433;27;20708;-84
2022/01/27 08:26:46;;;;;;;8.48;6.35;;;;;;;;;;5149250;27;20203;-82
2022/01/27 08:29:19;;;;;;;10.05;7.93;;;;;;;;;;5149190;27;20226;-84
2022/01/27 08:31:59;;;;;;;13.15;10.07;;;;;;;;;;5147974;27;20199;-85
2022/01/27 08:34:31;;;;;;;12.32;8.55;;;;;;;;;;5147893;27;20305;-83
2022/01/27 08:37:00;;;;;;;11.70;7.22;;;;;;;;;;5146201;27;20692;-84
2022/01/27 08:39:28;;;;;;;11.07;8.38;;;;;;;;;;5144216;27;20654;-84
2022/01/27 08:41:55;;;;;;;12.80;7.75;;;;;;;;;;5144781;27;20686;-84
2022/01/27 08:44:23;;;;;;;10.75;7.43;;;;;;;;;;5145551;27;20314;-85
2022/01/27 08:46:51;;;;;;;13.80;8.35;;;;;;;;;;5145948;27;20198;-84
2022/01/27 08:49:20;;;;;;;12.02;8.30;;;;;;;;;;5146942;27;20202;-86
2022/01/27 08:51:49;;;;;;;11.15;7.63;;;;;;;;;;5145904;27;20198;-85
2022/01/27 08:54:16;;;;;;;10.55;8.55;;;;;;;;;;5144871;27;20264;-84
2022/01/27 08:56:44;;;;;;;9.18;7.32;;;;;;;;;;5146003;27;20203;-85
2022/01/27 08:59:12;;;;;;;11.15;7.55;;;;;;;;;;5145352;27;20202;-84
2022/01/27 09:01:40;;;;;;;8.73;7.07;;;;;;;;;;5147619;27;20619;-83
2022/01/27 09:04:09;;;;;;;10.52;8.07;;;;;;;;;;5155835;27;20223;-81
2022/01/27 09:06:37;;;;;;;11.27;8.38;;;;;;;;;;5158007;27;20224;-82
2022/01/27 09:09:07;;;;;;;10.18;7.15;;;;;;;;;;5158342;27;20199;-82
2022/01/27 09:11:35;;;;;;;11.18;7.70;;;;;;;;;;5157985;27;20203;-82
2022/01/27 09:14:03;;;;;;;10.68;7.72;;;;;;;;;;5157839;27;20179;-82
2022/01/27 09:16:31;;;;;;;11.07;7.93;;;;;;;;;;5168337;22;20191;-85
2022/01/27 09:19:01;;;;;;;7.95;5.78;;;;;;;;;;5096179;28;20204;-84
2022/01/27 09:21:40;;;;;;;9.77;7.68;;;;;;;;;;5096947;28;20205;-84
2022/01/27 09:24:13;;;;;;;7.57;6.72;;;;;;;;;;5097279;28;20694;-84
2022/01/27 09:26:50;;;;;;;10.50;6.88;;;;;;;;;;5096817;28;20224;-83
2022/01/27 09:29:19;;;;;;;8.13;6.95;;;;;;;;;;5096474;28;20287;-85
2022/01/27 09:31:48;;;;;;;12.48;7.93;;;;;;;;;;5095618;28;20200;-85
2022/01/27 09:34:17;;;;;;;9.25;7.35;;;;;;;;;;5096669;28;20193;-83
2022/01/27 09:36:46;;;;;;;11.82;8.40;;;;;;;;;;5094230;28;20637;-84
2022/01/27 09:39:15;;;;;;;10.07;7.75;;;;;;;;;;5095299;28;20204;-84
2022/01/27 09:41:44;;;;;;;7.38;6.25;;;;;;;;;;5095630;28;20670;-84
2022/01/27 09:44:13;;;;;;;10.15;7.70;;;;;;;;;;5095327;28;20699;-84
2022/01/27 09:46:43;;;;;;;11.05;7.85;;;;;;;;;;5095016;28;20327;-85
2022/01/27 09:49:16;;;;;;;7.55;6.70;;;;;;;;;;5094171;28;20806;-84
2022/01/27 09:51:46;;;;;;;10.50;8.20;;;;;;;;;;5094676;28;20222;-83
2022/01/27 09:54:16;;;;;;;8.20;7.25;;;;;;;;;;5094655;28;20204;-82
2022/01/27 09:56:44;;;;;;;8.07;7.25;;;;;;;;;;5095289;28;20224;-84
2022/01/27 09:59:11;;;;;;;7.85;6.85;;;;;;;;;;5094836;28;20196;-81
2022/01/27 10:01:46;;;;;;;11.00;6.90;;;;;;;;;;5095407;28;20201;-85
2022/01/27 10:04:13;;;;;;;8.05;7.07;;;;;;;;;;5094250;28;20703;-84
2022/01/27 10:06:48;;;;;;;7.10;6.40;;;;;;;;;;5095278;28;20219;-84
2022/01/27 10:09:22;;;;;;;9.23;7.55;;;;;;;;;;5095809;28;20670;-85
2022/01/27 10:11:51;;;;;;;9.45;6.82;;;;;;;;;;5094841;28;20697;-83
2022/01/27 10:14:21;;;;;;;8.07;6.47;;;;;;;;;;5094470;28;20233;-82
2022/01/27 10:16:51;;;;;;;7.65;5.93;;;;;;;;;;5095254;28;20220;-84
2022/01/27 10:19:22;;;;;;;7.97;6.80;;;;;;;;;;5095595;28;20226;-85
2022/01/27 10:21:49;;;;;;;7.45;6.05;;;;;;;;;;5093928;28;20741;-83
2022/01/27 10:24:25;;;;;;;7.00;5.88;;;;;;;;;;5093807;28;20517;-83
2022/01/27 10:27:21;;;;;;;6.57;5.97;;;;;;;;;;5094788;28;20211;-85
2022/01/27 10:32:40;;;;;;;6.25;5.65;;;;;;;;;;5050211;28;20200;-85
2022/01/27 10:35:09;;;;;;;6.55;5.60;;;;;;;;;;5094697;28;20200;-85
2022/01/27 10:38:03;;;;;;;7.00;5.93;;;;;;;;;;5094561;28;20258;-85
2022/01/27 10:40:35;;;;;;;8.60;7.30;;;;;;;;;;5094313;28;20281;-85
2022/01/27 10:43:12;;;;;;;9.35;7.30;;;;;;;;;;5093881;28;20295;-84
2022/01/27 10:46:00;;;;;;;7.10;5.82;;;;;;;;;;5094964;28;20335;-84
2022/01/27 10:48:31;;;;;;;6.70;5.60;;;;;;;;;;5097876;28;20222;-83
2022/01/27 10:51:03;;;;;;;7.20;6.22;;;;;;;;;;5099045;28;20593;-84
2022/01/27 10:53:51;;;;;;;8.52;6.22;;;;;;;;;;5098825;28;20204;-84
2022/01/27 10:56:24;;;;;;;7.88;6.20;;;;;;;;;;5098407;28;20204;-84
2022/01/27 10:58:51;;;;;;;6.72;5.75;;;;;;;;;;5098808;28;20226;-83
2022/01/27 11:01:32;;;;;;;6.45;5.72;;;;;;;;;;5098330;28;20207;-84
2022/01/27 11:04:02;;;;;;;11.50;7.82;;;;;;;;;;5097963;28;20200;-84
2022/01/27 11:06:32;;;;;;;9.45;7.10;;;;;;;;;;5098759;28;20211;-84
2022/01/27 11:09:04;;;;;;;9.30;6.30;;;;;;;;;;5098438;28;20200;-84
2022/01/27 11:11:34;;;;;;;8.27;6.00;;;;;;;;;;5098197;28;20204;-85
2022/01/27 11:14:01;;;;;;;7.75;6.95;;;;;;;;;;5098048;28;20211;-84
2022/01/27 11:16:34;;;;;;;8.07;6.18;;;;;;;;;;5097297;28;20329;-84
2022/01/27 11:19:17;;;;;;;6.47;5.88;;;;;;;;;;5098482;28;20254;-84
2022/01/27 11:21:49;;;;;;;8.07;5.97;;;;;;;;;;5098457;28;20243;-85
2022/01/27 11:24:25;;;;;;;6.60;4.93;;;;;;;;;;5097900;28;20726;-84
2022/01/27 11:27:01;;;;;;;6.25;5.18;;;;;;;;;;5070160;28;20217;-85
2022/01/27 11:29:30;;;;;;;5.72;4.65;;;;;;;;;;5059163;28;20580;-86
2022/01/27 11:32:13;;;;;;;7.43;4.90;;;;;;;;;;5070737;28;20665;-86
2022/01/27 11:34:52;;;;;;;6.00;4.80;;;;;;;;;;5078378;28;20193;-86
2022/01/27 11:37:33;;;;;;;5.05;4.55;;;;;;;;;;5079546;28;20229;-85
2022/01/27 11:40:06;;;;;;;6.03;4.35;;;;;;;;;;5076690;28;20589;-85
2022/01/27 11:43:06;;;;;;;4.45;4.03;;;;;;;;;;5077586;28;20205;-85
2022/01/27 11:45:41;;;;;;;6.07;4.40;;;;;;;;;;5076581;28;20229;-84
2022/01/27 11:48:11;;;;;;;3.95;3.50;;;;;;;;;;5077496;28;20590;-84
2022/01/27 11:50:53;;;;;;;4.55;3.67;;;;;;;;;;5078776;28;20239;-85
2022/01/27 11:53:45;;;;;;;3.83;2.95;;;;;;;;;;5082468;28;20253;-85
2022/01/27 11:56:37;;;;;;;4.13;3.83;;;;;;;;;;5077427;28;20201;-83
2022/01/27 11:59:08;;;;;;;5.10;3.47;;;;;;;;;;5095604;28;20686;-83
2022/01/27 12:01:37;;;;;;;2.90;2.70;;;;;;;;;;5096806;28;20695;-83
2022/01/27 12:04:17;;;;;;;3.85;3.53;;;;;;;;;;5096792;28;20200;-83
2022/01/27 12:07:06;;;;;;;3.10;2.90;;;;;;;;;;5096822;28;20227;-84
2022/01/27 12:09:36;;;;;;;3.03;2.72;;;;;;;;;;5097140;28;20204;-83
2022/01/27 12:12:11;;;;;;;5.63;4.50;;;;;;;;;;5096578;28;20213;-83
2022/01/27 12:15:13;;;;;;;3.97;3.20;;;;;;;;;;5096533;28;20667;-84
2022/01/27 12:17:41;;;;;;;2.42;2.22;;;;;;;;;;5013573;28;20348;-83
2022/01/27 12:20:13;;;;;;;2.30;2.10;;;;;;;;;;5013561;28;20234;-83
2022/01/27 12:23:05;;;;;;;2.03;1.92;;;;;;;;;;5053151;28;20207;-83
2022/01/27 12:25:48;;;;;;;2.17;2.05;;;;;;;;;;5094026;28;20282;-82
2022/01/27 12:28:15;;;;;;;2.13;1.83;;;;;;;;;;5096080;28;20224;-83
2022/01/27 12:30:59;;;;;;;1.85;1.75;;;;;;;;;;5097380;28;20620;-84
2022/01/27 12:33:26;;;;;;;1.98;1.58;;;;;;;;;;5096021;28;20254;-83
2022/01/27 12:35:55;;;;;;;1.90;1.80;;;;;;;;;;5095923;28;20207;-83
2022/01/27 12:38:23;;;;;;;1.48;1.35;;;;;;;;;;5095851;28;20216;-83
2022/01/27 12:40:57;;;;;;;1.35;1.35;;;;;;;;;;5096546;28;20208;-83
2022/01/27 12:43:25;;;;;;;1.08;1.08;;;;;;;;;;5095524;28;20253;-83
2022/01/27 12:45:55;;;;;;;1.52;1.42;;;;;;;;;;5095890;28;20220;-84
2022/01/27 12:48:25;;;;;;;1.02;1.02;;;;;;;;;;5096198;28;20220;-84
2022/01/27 12:51:02;;;;;;;1.17;1.08;;;;;;;;;;5096165;28;20211;-85
2022/01/27 12:53:31;;;;;;;1.40;1.27;;;;;;;;;;5095217;28;20204;-84
2022/01/27 12:56:00;;;;;;;1.10;1.10;;;;;;;;;;5096223;28;20649;-85
2022/01/27 12:58:32;;;;;;;1.30;1.20;;;;;;;;;;5096915;28;20221;-86
2022/01/27 13:01:02;;;;;;;0.88;0.88;;;;;;;;;;5095487;28;20250;-82
2022/01/27 13:03:29;;;;;;;1.25;1.20;;;;;;;;;;5095181;28;20196;-86
2022/01/27 13:06:00;;;;;;;1.00;1.00;;;;;;;;;;5095299;28;20220;-85
2022/01/27 13:08:31;;;;;;;0.80;0.80;;;;;;;;;;5095427;28;20757;-83
2022/01/27 13:11:03;;;;;;;1.10;1.10;;;;;;;;;;5095383;28;20204;-84
2022/01/27 13:13:36;;;;;;;1.33;1.15;;;;;;;;;;5095332;28;20201;-83
2022/01/27 13:16:08;;;;;;;1.13;0.90;;;;;;;;;;5095260;28;20290;-83
2022/01/27 13:18:43;;;;;;;0.93;0.93;;;;;;;;;;5095333;28;20224;-83
2022/01/27 13:21:27;;;;;;;0.95;0.95;;;;;;;;;;5095754;28;20204;-83
2022/01/27 13:24:07;;;;;;;0.82;0.82;;;;;;;;;;5095447;28;20518;-83
2022/01/27 13:26:35;;;;;;;0.90;0.90;;;;;;;;;;5095465;28;20304;-84
2022/01/27 13:29:03;;;;;;;0.80;0.80;;;;;;;;;;5095209;28;20210;-83
2022/01/27 13:31:35;;;;;;;0.70;0.70;;;;;;;;;;5096083;28;20192;-83
2022/01/27 13:34:04;;;;;;;0.90;0.90;;;;;;;;;;5095174;28;20200;-83
2022/01/27 13:36:34;;;;;;;1.40;1.30;;;;;;;;;;5095234;28;20207;-83
2022/01/27 13:39:12;;;;;;;1.20;1.10;;;;;;;;;;5077856;28;20215;-83
2022/01/27 13:41:41;;;;;;;1.00;0.90;;;;;;;;;;5057650;28;20201;-83
2022/01/27 13:44:10;;;;;;;0.70;0.70;;;;;;;;;;5057420;28;20193;-83
2022/01/27 13:46:43;;;;;;;0.70;0.70;;;;;;;;;;5074602;28;20270;-83
2022/01/27 13:49:13;;;;;;;0.57;0.57;;;;;;;;;;5074784;28;20664;-83
2022/01/27 13:51:51;;;;;;;0.45;0.45;;;;;;;;;;5074314;28;20566;-83
2022/01/27 13:54:20;;;;;;;0.60;0.60;;;;;;;;;;5087945;28;20563;-83
2022/01/27 13:56:51;;;;;;;0.70;0.70;;;;;;;;;;5094260;28;20644;-83
2022/01/27 13:59:21;;;;;;;0.60;0.60;;;;;;;;;;5094436;28;20705;-83
2022/01/27 14:01:50;;;;;;;0.50;0.50;;;;;;;;;;5094327;28;20283;-83
2022/01/27 14:04:17;;;;;;;0.70;0.65;;;;;;;;;;5094675;28;20204;-83
2022/01/27 14:06:56;;;;;;;0.52;0.52;;;;;;;;;;5093894;28;20220;-83
2022/01/27 14:09:29;;;;;;;0.52;0.52;;;;;;;;;;5094456;28;20262;-83
2022/01/27 14:12:04;;;;;;;0.70;0.70;;;;;;;;;;5094500;28;20229;-83
2022/01/27 14:14:49;;;;;;;0.60;0.60;;;;;;;;;;5094730;28;20200;-83
2022/01/27 14:17:26;;;;;;;0.50;0.50;;;;;;;;;;5094202;28;20808;-83
2022/01/27 14:19:54;;;;;;;0.60;0.60;;;;;;;;;;5104677;28;20582;-83
2022/01/27 14:22:26;;;;;;;0.60;0.60;;;;;;;;;;5107618;28;20200;-83
2022/01/27 14:25:03;;;;;;;0.60;0.60;;;;;;;;;;5110693;28;20211;-83
2022/01/27 14:27:40;;;;;;;0.50;0.50;;;;;;;;;;5103140;28;20243;-83
2022/01/27 14:30:13;;;;;;;0.70;0.70;;;;;;;;;;5098940;28;20199;-83
2022/01/27 14:32:43;;;;;;;0.45;0.45;;;;;;;;;;5098987;28;20200;-83
2022/01/27 14:35:14;;;;;;;0.50;0.50;;;;;;;;;;5099477;28;20267;-83
2022/01/27 14:37:42;;;;;;;0.60;0.60;;;;;;;;;;5098199;28;20273;-83
2022/01/27 14:40:13;;;;;;;0.68;0.68;;;;;;;;;;5098920;28;20211;-83
2022/01/27 14:42:41;;;;;;;0.30;0.30;;;;;;;;;;5100013;28;20204;-83
2022/01/27 14:45:10;;;;;;;0.40;0.40;;;;;;;;;;5098776;28;20209;-82
2022/01/27 14:47:43;;;;;;;0.52;0.52;;;;;;;;;;5098202;28;20227;-83
2022/01/27 14:50:13;;;;;;;0.50;0.50;;;;;;;;;;5098498;28;20282;-83
2022/01/27 14:52:43;;;;;;;0.50;0.50;;;;;;;;;;5098027;28;20204;-83
2022/01/27 14:55:16;;;;;;;0.40;0.40;;;;;;;;;;5058624;28;20622;-83
2022/01/27 14:57:45;;;;;;;0.50;0.50;;;;;;;;;;5058345;28;20225;-83
2022/01/27 15:00:16;;;;;;;0.70;0.70;;;;;;;;;;5058280;28;20202;-83
2022/01/27 15:02:44;;;;;;;0.60;0.60;;;;;;;;;;5057616;28;20193;-82
2022/01/27 15:05:13;;;;;;;0.55;0.55;;;;;;;;;;5057669;28;20221;-83
2022/01/27 15:07:41;;;;;;;0.57;0.57;;;;;;;;;;5056989;28;20245;-83
2022/01/27 15:10:12;;;;;;;0.32;0.32;;;;;;;;;;5057433;28;20260;-83
2022/01/27 15:12:39;;;;;;;0.45;0.45;;;;;;;;;;5056590;28;20289;-83
2022/01/27 15:20:40;;;;;;;0.47;0.47;;;;;;;;;;5056890;28;20251;-83
2022/01/27 15:23:08;;;;;;;0.60;0.60;;;;;;;;;;5063942;28;20239;-82
2022/01/27 15:25:35;;;;;;;0.60;0.60;;;;;;;;;;5096915;28;20200;-82